createdAt,value
2023-04-15T00:01:21.694Z,7.60
2023-04-15T00:03:48.218Z,7.61
2023-04-15T00:06:14.666Z,7.65
2023-04-15T00:08:40.916Z,7.73
2023-04-15T00:11:07.164Z,7.75
2023-04-15T00:13:33.421Z,7.77
2023-04-15T00:15:59.656Z,7.78
2023-04-15T00:18:25.909Z,7.69
2023-04-15T00:20:52.149Z,7.58
2023-04-15T00:23:18.383Z,7.56
2023-04-15T00:25:44.630Z,7.50
2023-04-15T00:28:10.855Z,7.47
2023-04-15T00:30:37.095Z,7.43
2023-04-15T00:33:03.355Z,7.44
2023-04-15T00:35:29.624Z,7.49
2023-04-15T00:37:55.876Z,7.48
2023-04-15T00:40:22.107Z,7.43
2023-04-15T00:42:48.401Z,7.41
2023-04-15T00:45:14.716Z,7.36
2023-04-15T00:47:40.987Z,7.32
2023-04-15T00:50:07.248Z,7.25
2023-04-15T00:52:33.521Z,7.15
2023-04-15T00:54:59.755Z,7.15
2023-04-15T00:57:26.020Z,7.19
2023-04-15T00:59:52.275Z,7.26
2023-04-15T01:02:18.736Z,7.29
2023-04-15T01:04:45.129Z,7.39
2023-04-15T01:07:11.350Z,7.45
2023-04-15T01:09:37.676Z,7.48
2023-04-15T01:12:03.983Z,7.50
2023-04-15T01:14:30.224Z,7.55
2023-04-15T01:16:56.466Z,7.59
2023-04-15T01:19:22.700Z,7.59
2023-04-15T01:21:48.948Z,7.55
2023-04-15T01:24:15.197Z,7.60
2023-04-15T01:26:42.355Z,7.55
2023-04-15T01:29:09.311Z,7.49
2023-04-15T01:31:35.657Z,7.41
2023-04-15T01:34:01.940Z,7.45
2023-04-15T01:36:28.211Z,7.46
2023-04-15T01:38:54.429Z,7.54
2023-04-15T01:41:20.691Z,7.56
2023-04-15T01:43:46.924Z,7.56
2023-04-15T01:46:13.206Z,7.49
2023-04-15T01:48:41.263Z,7.50
2023-04-15T01:51:07.534Z,7.48
2023-04-15T01:53:33.795Z,7.51
2023-04-15T01:56:00.031Z,7.50
2023-04-15T01:58:26.306Z,7.54
2023-04-15T02:00:52.557Z,7.58
2023-04-15T02:03:18.867Z,7.53
2023-04-15T02:05:45.170Z,7.53
2023-04-15T02:08:11.409Z,7.52
2023-04-15T02:10:37.652Z,7.40
2023-04-15T02:13:03.891Z,7.31
2023-04-15T02:15:30.132Z,7.32
2023-04-15T02:17:56.421Z,7.36
2023-04-15T02:20:22.699Z,7.34
2023-04-15T02:22:48.936Z,7.31
2023-04-15T02:25:15.160Z,7.37
2023-04-15T02:27:41.384Z,7.40
2023-04-15T02:30:07.620Z,7.37
2023-04-15T02:32:33.935Z,7.34
2023-04-15T02:35:00.227Z,7.37
2023-04-15T02:37:26.452Z,7.42
2023-04-15T02:39:52.688Z,7.51
2023-04-15T02:42:18.912Z,7.49
2023-04-15T02:44:45.161Z,7.51
2023-04-15T02:47:11.416Z,7.49
2023-04-15T02:49:37.643Z,7.51
2023-04-15T02:52:03.886Z,7.50
2023-04-15T02:54:30.302Z,7.47
2023-04-15T02:56:56.555Z,7.48
2023-04-15T02:59:22.798Z,7.38
2023-04-15T03:01:49.117Z,7.41
2023-04-15T03:04:15.546Z,7.41
2023-04-15T03:06:41.912Z,7.44
2023-04-15T03:09:08.146Z,7.54
2023-04-15T03:11:36.393Z,7.53
2023-04-15T03:14:02.786Z,7.53
2023-04-15T03:16:29.029Z,7.53
2023-04-15T03:18:55.261Z,7.55
2023-04-15T03:21:21.516Z,7.54
2023-04-15T03:23:47.745Z,7.50
2023-04-15T03:26:13.995Z,7.45
2023-04-15T03:28:40.233Z,7.45
2023-04-15T03:31:06.501Z,7.47
2023-04-15T03:33:32.751Z,7.46
2023-04-15T03:35:59.016Z,7.45
2023-04-15T03:38:25.252Z,7.46
2023-04-15T03:40:51.475Z,7.40
2023-04-15T03:43:17.706Z,7.27
2023-04-15T03:45:43.929Z,6.96
2023-04-15T03:48:16.734Z,6.93
2023-04-15T03:50:44.244Z,6.53
2023-04-15T03:53:10.483Z,6.53
2023-04-15T03:55:36.711Z,6.59
2023-04-15T03:58:02.957Z,6.63
2023-04-15T04:00:29.185Z,6.71
2023-04-15T04:02:55.570Z,6.78
2023-04-15T04:05:21.944Z,6.83
2023-04-15T04:07:48.227Z,6.83
2023-04-15T04:10:14.493Z,6.66
2023-04-15T04:12:40.751Z,6.74
2023-04-15T04:15:06.985Z,6.72
2023-04-15T04:17:33.242Z,6.75
2023-04-15T04:19:59.519Z,6.81
2023-04-15T04:22:25.762Z,6.83
2023-04-15T04:24:52.026Z,6.86
2023-04-15T04:27:18.241Z,6.88
2023-04-15T04:29:44.508Z,6.84
2023-04-15T04:32:10.845Z,6.79
2023-04-15T04:34:37.190Z,6.79
2023-04-15T04:37:03.420Z,6.75
2023-04-15T04:39:29.654Z,6.77
2023-04-15T04:41:55.972Z,6.80
2023-04-15T04:44:22.240Z,6.82
2023-04-15T04:46:49.425Z,6.63
2023-04-15T04:49:17.141Z,6.58
2023-04-15T04:51:43.391Z,6.56
2023-04-15T04:54:09.672Z,6.52
2023-04-15T04:56:35.949Z,6.52
2023-04-15T04:59:02.357Z,6.54
2023-04-15T05:01:28.886Z,6.63
2023-04-15T05:03:55.237Z,6.64
2023-04-15T05:06:21.586Z,6.69
2023-04-15T05:08:47.894Z,6.75
2023-04-15T05:11:14.177Z,6.79
2023-04-15T05:13:40.430Z,6.78
2023-04-15T05:16:06.774Z,6.81
2023-04-15T05:18:33.093Z,6.86
2023-04-15T05:20:59.423Z,6.86
2023-04-15T05:23:25.669Z,6.85
2023-04-15T05:25:51.958Z,6.87
2023-04-15T05:28:18.242Z,6.66
2023-04-15T05:30:44.502Z,6.67
2023-04-15T05:33:10.769Z,6.73
2023-04-15T05:35:37.013Z,6.82
2023-04-15T05:38:03.277Z,6.90
2023-04-15T05:40:29.549Z,6.94
2023-04-15T05:42:55.818Z,7.04
2023-04-15T05:45:22.040Z,7.11
2023-04-15T05:47:48.342Z,7.13
2023-04-15T05:50:14.582Z,7.18
2023-04-15T05:52:40.840Z,7.13
2023-04-15T05:55:07.129Z,7.11
2023-04-15T05:57:33.381Z,7.15
2023-04-15T05:59:59.628Z,7.25
2023-04-15T06:02:25.979Z,7.33
2023-04-15T06:04:52.341Z,7.33
2023-04-15T06:07:18.622Z,7.35
2023-04-15T06:09:44.860Z,7.36
2023-04-15T06:12:11.139Z,7.37
2023-04-15T06:14:37.422Z,7.36
2023-04-15T06:17:03.724Z,7.37
2023-04-15T06:19:30.142Z,7.45
2023-04-15T06:21:56.450Z,7.38
2023-04-15T06:24:22.676Z,7.37
2023-04-15T06:26:48.930Z,7.40
2023-04-15T06:29:15.195Z,7.40
2023-04-15T06:31:41.488Z,7.42
2023-04-15T06:34:09.463Z,7.42
2023-04-15T06:36:35.776Z,7.35
2023-04-15T06:39:02.428Z,7.32
2023-04-15T06:41:28.876Z,7.30
2023-04-15T06:43:55.100Z,7.30
2023-04-15T06:46:21.394Z,7.26
2023-04-15T06:48:47.669Z,7.39
2023-04-15T06:51:13.903Z,7.50
2023-04-15T06:53:40.185Z,7.59
2023-04-15T06:56:06.455Z,7.67
2023-04-15T06:58:32.815Z,7.76
2023-04-15T07:00:59.144Z,7.85
2023-04-15T07:03:25.454Z,7.95
2023-04-15T07:05:51.689Z,8.14
2023-04-15T07:08:17.918Z,8.29
2023-04-15T07:10:44.170Z,8.01
2023-04-15T07:13:10.451Z,8.18
2023-04-15T07:15:36.732Z,8.14
2023-04-15T07:18:03.077Z,8.22
2023-04-15T07:20:29.430Z,7.90
2023-04-15T07:22:55.716Z,8.29
2023-04-15T07:25:21.989Z,8.55
2023-04-15T07:27:48.242Z,8.70
2023-04-15T07:30:14.492Z,8.89
2023-04-15T07:32:41.935Z,9.10
2023-04-15T07:35:08.226Z,9.20
2023-04-15T07:37:34.467Z,9.21
2023-04-15T07:40:00.750Z,9.06
2023-04-15T07:42:27.068Z,9.04
2023-04-15T07:44:53.303Z,9.19
2023-04-15T07:47:19.599Z,9.31
2023-04-15T07:49:45.880Z,9.39
2023-04-15T07:52:12.107Z,9.41
2023-04-15T07:54:38.342Z,9.30
2023-04-15T07:57:04.575Z,9.34
2023-04-15T07:59:30.812Z,9.36
2023-04-15T08:01:57.047Z,9.41
2023-04-15T08:04:23.541Z,9.58
2023-04-15T08:06:49.890Z,9.76
2023-04-15T08:09:16.125Z,9.86
2023-04-15T08:11:42.361Z,9.64
2023-04-15T08:14:08.588Z,9.80
2023-04-15T08:16:34.922Z,9.90
2023-04-15T08:19:01.634Z,10.04
2023-04-15T08:21:28.055Z,9.94
2023-04-15T08:23:54.302Z,9.58
2023-04-15T08:26:20.562Z,9.35
2023-04-15T08:28:46.797Z,9.06
2023-04-15T08:31:13.096Z,8.96
2023-04-15T08:33:39.393Z,7.98
2023-04-15T08:36:05.643Z,7.52
2023-04-15T08:38:31.903Z,7.78
2023-04-15T08:40:58.342Z,7.24
2023-04-15T08:43:24.597Z,6.89
2023-04-15T08:45:50.906Z,6.79
2023-04-15T08:48:17.168Z,6.77
2023-04-15T08:50:43.428Z,6.64
2023-04-15T08:53:09.728Z,6.55
2023-04-15T08:55:35.959Z,6.67
2023-04-15T08:58:02.179Z,6.21
2023-04-15T09:00:28.423Z,5.73
2023-04-15T09:02:54.732Z,5.70
2023-04-15T09:05:21.025Z,6.09
2023-04-15T09:07:47.312Z,6.38
2023-04-15T09:10:14.312Z,6.61
2023-04-15T09:12:40.566Z,6.45
2023-04-15T09:15:06.839Z,6.48
2023-04-15T09:17:34.114Z,6.47
2023-04-15T09:20:00.386Z,6.42
2023-04-15T09:22:26.639Z,6.72
2023-04-15T09:24:52.868Z,6.88
2023-04-15T09:27:19.128Z,6.95
2023-04-15T09:29:45.404Z,6.77
2023-04-15T09:32:11.628Z,6.81
2023-04-15T09:34:37.897Z,6.96
2023-04-15T09:37:04.182Z,6.90
2023-04-15T09:39:30.420Z,6.37
2023-04-15T09:41:56.687Z,6.64
2023-04-15T09:44:23.007Z,6.91
2023-04-15T09:46:49.267Z,7.20
2023-04-15T09:49:15.525Z,7.48
2023-04-15T09:51:43.400Z,7.75
2023-04-15T09:54:14.865Z,7.95
2023-04-15T09:56:41.149Z,8.11
2023-04-15T09:59:07.385Z,8.10
2023-04-15T10:01:33.718Z,8.22
2023-04-15T10:04:00.157Z,8.39
2023-04-15T10:06:26.494Z,8.50
2023-04-15T10:08:52.746Z,8.60
2023-04-15T10:11:18.985Z,8.82
2023-04-15T10:13:45.234Z,8.81
2023-04-15T10:16:11.500Z,8.63
2023-04-15T10:18:37.737Z,8.80
2023-04-15T10:21:03.965Z,8.95
2023-04-15T10:23:30.180Z,9.17
2023-04-15T10:25:56.419Z,9.29
2023-04-15T10:28:22.662Z,9.41
2023-04-15T10:30:48.954Z,9.53
2023-04-15T10:33:15.256Z,9.65
2023-04-15T10:35:41.511Z,9.79
2023-04-15T10:38:07.745Z,9.94
2023-04-15T10:40:35.039Z,10.06
2023-04-15T10:43:01.294Z,10.17
2023-04-15T10:45:27.524Z,10.27
2023-04-15T10:47:53.777Z,10.36
2023-04-15T10:50:20.028Z,10.49
2023-04-15T10:52:46.253Z,10.47
2023-04-15T10:55:12.545Z,10.14
2023-04-15T10:57:38.825Z,10.23
2023-04-15T11:00:05.050Z,10.28
2023-04-15T11:02:31.399Z,10.47
2023-04-15T11:04:57.768Z,10.59
2023-04-15T11:07:24.049Z,10.56
2023-04-15T11:09:50.370Z,10.54
2023-04-15T11:12:16.635Z,10.62
2023-04-15T11:14:42.896Z,10.69
2023-04-15T11:17:09.116Z,10.39
2023-04-15T11:19:35.367Z,10.45
2023-04-15T11:22:01.612Z,10.58
2023-04-15T11:24:27.884Z,10.71
2023-04-15T11:26:54.132Z,10.81
2023-04-15T11:29:20.362Z,10.80
2023-04-15T11:31:47.182Z,10.77
2023-04-15T11:34:13.452Z,10.77
2023-04-15T11:36:39.691Z,10.75
2023-04-15T11:39:05.956Z,10.80
2023-04-15T11:41:32.239Z,10.68
2023-04-15T11:43:58.473Z,10.69
2023-04-15T11:46:24.794Z,10.75
2023-04-15T11:48:51.096Z,11.00
2023-04-15T11:51:17.368Z,11.32
2023-04-15T11:53:43.639Z,11.63
2023-04-15T11:56:09.900Z,11.88
2023-04-15T11:58:36.181Z,11.78
2023-04-15T12:01:02.477Z,11.48
2023-04-15T12:03:28.848Z,11.56
2023-04-15T12:05:55.243Z,11.81
2023-04-15T12:08:21.522Z,12.08
2023-04-15T12:10:47.777Z,12.25
2023-04-15T12:13:14.010Z,12.33
2023-04-15T12:15:40.275Z,12.14
2023-04-15T12:18:06.632Z,11.90
2023-04-15T12:20:33.538Z,11.77
2023-04-15T12:22:59.791Z,12.00
2023-04-15T12:25:26.052Z,11.47
2023-04-15T12:27:52.316Z,11.98
2023-04-15T12:30:18.547Z,11.90
2023-04-15T12:32:44.820Z,11.72
2023-04-15T12:35:11.064Z,12.09
2023-04-15T12:37:37.312Z,12.47
2023-04-15T12:40:03.577Z,10.99
2023-04-15T12:42:29.806Z,11.38
2023-04-15T12:44:56.093Z,10.76
2023-04-15T12:47:22.423Z,10.71
2023-04-15T12:49:48.702Z,10.67
2023-04-15T12:52:14.958Z,10.68
2023-04-15T12:54:41.227Z,10.70
2023-04-15T12:57:07.777Z,10.58
2023-04-15T12:59:34.207Z,10.97
2023-04-15T13:02:00.556Z,10.23
2023-04-15T13:04:26.871Z,10.08
2023-04-15T13:06:53.119Z,9.54
2023-04-15T13:09:19.341Z,9.32
2023-04-15T13:11:45.573Z,9.95
2023-04-15T13:14:11.841Z,9.12
2023-04-15T13:16:38.175Z,8.75
2023-04-15T13:19:04.448Z,9.31
2023-04-15T13:21:30.691Z,9.72
2023-04-15T13:23:56.941Z,10.45
2023-04-15T13:26:23.185Z,10.47
2023-04-15T13:28:49.431Z,10.80
2023-04-15T13:31:15.692Z,10.77
2023-04-15T13:33:41.976Z,10.77
2023-04-15T13:36:08.237Z,11.30
2023-04-15T13:38:34.496Z,11.45
2023-04-15T13:41:00.782Z,11.69
2023-04-15T13:43:27.047Z,11.14
2023-04-15T13:45:53.369Z,11.31
2023-04-15T13:48:19.986Z,10.88
2023-04-15T13:50:46.246Z,11.22
2023-04-15T13:53:12.546Z,11.67
2023-04-15T13:55:38.844Z,11.92
2023-04-15T13:58:05.064Z,11.92
2023-04-15T14:00:31.294Z,10.89
2023-04-15T14:02:57.647Z,10.76
2023-04-15T14:05:23.963Z,11.07
2023-04-15T14:07:50.209Z,11.17
2023-04-15T14:10:16.476Z,11.28
2023-04-15T14:12:42.729Z,11.44
2023-04-15T14:15:08.973Z,11.08
2023-04-15T14:17:35.222Z,10.86
2023-04-15T14:20:01.520Z,10.88
2023-04-15T14:22:27.792Z,10.62
2023-04-15T14:24:54.044Z,10.37
2023-04-15T14:27:20.292Z,10.74
2023-04-15T14:29:46.549Z,11.02
2023-04-15T14:32:13.032Z,11.16
2023-04-15T14:34:39.368Z,10.87
2023-04-15T14:37:05.693Z,10.77
2023-04-15T14:39:31.942Z,10.87
2023-04-15T14:41:58.179Z,10.87
2023-04-15T14:44:24.430Z,10.76
2023-04-15T14:46:50.683Z,10.51
2023-04-15T14:49:16.947Z,10.03
2023-04-15T14:51:43.209Z,10.31
2023-04-15T14:54:09.496Z,10.43
2023-04-15T14:56:35.879Z,10.68
2023-04-15T14:59:02.422Z,10.59
2023-04-15T15:01:28.883Z,10.74
2023-04-15T15:03:55.225Z,10.96
2023-04-15T15:06:21.503Z,10.82
2023-04-15T15:08:47.772Z,10.93
2023-04-15T15:11:14.090Z,11.14
2023-04-15T15:13:40.383Z,10.34
2023-04-15T15:16:06.647Z,10.39
2023-04-15T15:18:32.904Z,10.12
2023-04-15T15:20:59.148Z,10.45
2023-04-15T15:23:26.776Z,10.66
2023-04-15T15:25:53.020Z,10.56
2023-04-15T15:28:19.275Z,9.74
2023-04-15T15:30:45.525Z,9.97
2023-04-15T15:33:11.831Z,10.39
2023-04-15T15:35:38.138Z,10.21
2023-04-15T15:38:04.427Z,9.45
2023-04-15T15:40:30.692Z,9.47
2023-04-15T15:42:56.996Z,9.36
2023-04-15T15:45:23.228Z,9.16
2023-04-15T15:47:49.480Z,9.46
2023-04-15T15:50:15.755Z,9.42
2023-04-15T15:52:42.017Z,9.03
2023-04-15T15:55:08.245Z,8.97
2023-04-15T15:57:34.477Z,8.79
2023-04-15T16:00:11.450Z,8.88
2023-04-15T16:02:59.799Z,8.75
2023-04-15T16:05:24.783Z,8.92
2023-04-15T16:07:51.072Z,9.19
2023-04-15T16:10:17.358Z,9.18
2023-04-15T16:12:43.597Z,8.69
2023-04-15T16:15:09.858Z,8.95
2023-04-15T16:17:36.162Z,9.17
2023-04-15T16:20:02.572Z,9.35
2023-04-15T16:22:28.843Z,9.26
2023-04-15T16:24:55.073Z,8.94
2023-04-15T16:27:21.332Z,9.21
2023-04-15T16:29:47.586Z,9.49
2023-04-15T16:32:13.964Z,9.11
2023-04-15T16:34:40.259Z,9.40
2023-04-15T16:37:06.501Z,9.34
2023-04-15T16:39:32.716Z,9.43
2023-04-15T16:41:58.963Z,9.39
2023-04-15T16:44:25.222Z,9.19
2023-04-15T16:46:51.461Z,9.21
2023-04-15T16:49:17.696Z,9.39
2023-04-15T16:51:43.933Z,9.46
2023-04-15T16:54:10.206Z,9.42
2023-04-15T16:56:36.513Z,9.28
2023-04-15T16:59:02.863Z,9.41
2023-04-15T17:01:29.235Z,9.22
2023-04-15T17:03:56.202Z,9.08
2023-04-15T17:06:22.639Z,9.19
2023-04-15T17:08:48.886Z,9.23
2023-04-15T17:11:15.133Z,9.28
2023-04-15T17:13:41.376Z,9.30
2023-04-15T17:16:07.699Z,8.63
2023-04-15T17:18:34.111Z,8.56
2023-04-15T17:21:00.394Z,8.53
2023-04-15T17:23:26.616Z,8.32
2023-04-15T17:25:53.064Z,8.08
2023-04-15T17:28:19.353Z,8.25
2023-04-15T17:30:45.600Z,8.29
2023-04-15T17:33:55.827Z,7.92
2023-04-15T17:35:58.125Z,8.01
2023-04-15T17:38:24.425Z,7.79
2023-04-15T17:40:50.683Z,7.96
2023-04-15T17:43:17.009Z,7.90
2023-04-15T17:45:43.260Z,8.10
2023-04-15T17:48:09.520Z,7.94
2023-04-15T17:50:35.888Z,8.04
2023-04-15T17:53:02.130Z,7.96
2023-04-15T17:55:28.392Z,7.87
2023-04-15T17:57:54.627Z,7.91
2023-04-15T18:00:20.890Z,8.03
2023-04-15T18:02:47.339Z,7.71
2023-04-15T18:05:13.778Z,7.83
2023-04-15T18:07:40.091Z,7.97
2023-04-15T18:10:06.378Z,8.07
2023-04-15T18:12:32.671Z,7.89
2023-04-15T18:14:58.917Z,7.38
2023-04-15T18:17:25.167Z,6.97
2023-04-15T18:19:51.428Z,7.24
2023-04-15T18:22:18.741Z,6.96
2023-04-15T18:24:45.005Z,6.75
2023-04-15T18:27:11.244Z,6.94
2023-04-15T18:29:37.508Z,7.14
2023-04-15T18:32:03.876Z,7.32
2023-04-15T18:34:30.154Z,7.48
2023-04-15T18:36:56.404Z,7.64
2023-04-15T18:39:22.655Z,7.76
2023-04-15T18:41:48.891Z,7.83
2023-04-15T18:44:15.156Z,7.90
2023-04-15T18:46:41.457Z,7.95
2023-04-15T18:49:07.927Z,7.89
2023-04-15T18:51:34.295Z,7.83
2023-04-15T18:54:00.546Z,7.78
2023-04-15T18:56:26.798Z,7.80
2023-04-15T18:59:26.981Z,7.82
2023-04-15T19:01:39.297Z,7.81
2023-04-15T19:04:05.649Z,7.80
2023-04-15T19:06:31.916Z,7.61
2023-04-15T19:08:58.356Z,7.55
2023-04-15T19:11:24.635Z,7.55
2023-04-15T19:13:50.875Z,7.41
2023-04-15T19:16:17.162Z,7.21
2023-04-15T19:18:43.406Z,7.00
2023-04-15T19:21:09.692Z,6.95
2023-04-15T19:23:35.956Z,6.88
2023-04-15T19:26:02.196Z,6.89
2023-04-15T19:28:28.453Z,6.81
2023-04-15T19:30:54.758Z,6.79
2023-04-15T19:33:21.067Z,6.76
2023-04-15T19:35:47.382Z,6.70
2023-04-15T19:38:13.637Z,6.64
2023-04-15T19:40:39.902Z,6.65
2023-04-15T19:43:06.215Z,6.55
2023-04-15T19:45:32.480Z,6.49
2023-04-15T19:47:58.745Z,6.44
2023-04-15T19:50:24.985Z,6.39
2023-04-15T19:52:51.241Z,6.32
2023-04-15T19:55:18.701Z,5.65
2023-04-15T19:57:44.919Z,4.72
2023-04-15T20:00:11.154Z,4.14
2023-04-15T20:02:37.551Z,4.11
2023-04-15T20:05:03.903Z,4.09
2023-04-15T20:07:30.155Z,4.24
2023-04-15T20:09:56.381Z,4.57
2023-04-15T20:12:50.412Z,4.82
2023-04-15T20:15:08.865Z,5.07
2023-04-15T20:17:35.190Z,5.30
2023-04-15T20:20:01.493Z,5.34
2023-04-15T20:22:27.815Z,5.43
2023-04-15T20:24:54.059Z,5.57
2023-04-15T20:27:20.315Z,5.59
2023-04-15T20:29:46.580Z,5.52
2023-04-15T20:32:12.835Z,5.36
2023-04-15T20:34:39.104Z,5.44
2023-04-15T20:37:05.359Z,5.44
2023-04-15T20:39:31.592Z,5.40
2023-04-15T20:41:57.811Z,5.33
2023-04-15T20:44:24.030Z,5.33
2023-04-15T20:46:50.315Z,5.36
2023-04-15T20:49:16.654Z,5.36
2023-04-15T20:51:42.921Z,5.51
2023-04-15T20:54:09.152Z,5.54
2023-04-15T20:56:35.391Z,5.63
2023-04-15T20:59:01.678Z,5.59
2023-04-15T21:01:28.022Z,5.58
2023-04-15T21:03:54.323Z,5.62
2023-04-15T21:06:20.593Z,5.74
2023-04-15T21:08:46.840Z,5.72
2023-04-15T21:11:18.321Z,5.92
2023-04-15T21:13:54.882Z,6.07
2023-04-15T21:16:21.161Z,6.15
2023-04-15T21:18:47.462Z,6.25
2023-04-15T21:21:13.701Z,6.38
2023-04-15T21:23:39.967Z,6.51
2023-04-15T21:26:06.208Z,6.56
2023-04-15T21:28:32.478Z,6.17
2023-04-15T21:30:58.721Z,6.20
2023-04-15T21:33:24.956Z,6.28
2023-04-15T21:35:51.195Z,6.36
2023-04-15T21:38:17.472Z,6.47
2023-04-15T21:40:43.767Z,6.51
2023-04-15T21:43:10.039Z,6.16
2023-04-15T21:45:36.385Z,5.45
2023-04-15T21:48:07.672Z,5.66
2023-04-15T21:50:34.375Z,5.88
2023-04-15T21:53:00.619Z,6.05
2023-04-15T21:55:27.757Z,6.21
2023-04-15T21:57:54.009Z,6.28
2023-04-15T22:00:20.304Z,6.38
2023-04-15T22:02:46.675Z,6.45
2023-04-15T22:05:12.976Z,6.46
2023-04-15T22:07:39.224Z,6.45
2023-04-15T22:10:05.462Z,6.31
2023-04-15T22:12:31.736Z,6.22
2023-04-15T22:14:58.014Z,6.17
2023-04-15T22:17:24.250Z,6.17
2023-04-15T22:19:50.515Z,6.15
2023-04-15T22:22:16.736Z,6.11
2023-04-15T22:24:42.969Z,6.16
2023-04-15T22:27:09.216Z,6.21
2023-04-15T22:29:35.480Z,6.26
2023-04-15T22:32:01.728Z,6.22
2023-04-15T22:34:27.977Z,6.23
2023-04-15T22:36:54.209Z,6.30
2023-04-15T22:39:20.452Z,6.35
2023-04-15T22:41:46.708Z,6.39
2023-04-15T22:44:12.952Z,6.48
2023-04-15T22:46:39.313Z,6.52
2023-04-15T22:49:05.801Z,6.63
2023-04-15T22:51:32.176Z,6.62
2023-04-15T22:53:58.419Z,6.48
2023-04-15T22:56:24.653Z,6.52
2023-04-15T22:58:50.883Z,6.42
2023-04-15T23:01:17.161Z,6.20
2023-04-15T23:03:56.668Z,5.93
2023-04-15T23:06:29.689Z,6.00
2023-04-15T23:08:55.923Z,5.65
2023-04-15T23:11:22.147Z,5.54
2023-04-15T23:13:48.408Z,5.73
2023-04-15T23:16:14.769Z,5.88
2023-04-15T23:18:41.041Z,6.04
2023-04-15T23:21:07.284Z,6.15
2023-04-15T23:23:33.506Z,6.28
2023-04-15T23:25:59.759Z,6.45
2023-04-15T23:28:26.003Z,6.47
2023-04-15T23:30:52.246Z,6.62
2023-04-15T23:33:18.507Z,6.72
2023-04-15T23:35:44.758Z,6.80
2023-04-15T23:38:11.048Z,6.80
2023-04-15T23:40:37.283Z,6.83
2023-04-15T23:43:03.735Z,6.87
2023-04-15T23:45:29.972Z,6.85
2023-04-15T23:47:56.266Z,6.87
2023-04-15T23:50:22.563Z,6.89
2023-04-15T23:52:48.823Z,6.93
2023-04-15T23:55:15.053Z,6.98
2023-04-15T23:57:41.299Z,7.01
